Station: ELLX - 22/02/2018 00:20Z (il y a 17 minutes)
ELLX 220020Z AUTO 05013KT 9999 NCD M02/M06 Q1018 NOSIG
Vent du 050º - 13 kt
Visibilité > 10 km
Pas de nuages détectés
Température: -02ºC - Point de rosée: -06ºC - QNH: 1018 hPa
Pas de changement significatif prévu dans les 2 heures qui suivent l'observation